createdAt,value
2017-10-02T00:00:53.936Z,9.90
2017-10-02T00:01:53.935Z,10.30
2017-10-02T00:02:53.932Z,9.60
2017-10-02T00:03:53.931Z,9.20
2017-10-02T00:04:53.926Z,11.00
2017-10-02T00:05:53.925Z,8.90
2017-10-02T00:06:53.924Z,10.60
2017-10-02T00:07:53.915Z,11.90
2017-10-02T00:08:53.914Z,11.60
2017-10-02T00:09:53.912Z,12.60
2017-10-02T00:10:53.909Z,9.00
2017-10-02T00:11:53.906Z,10.00
2017-10-02T00:12:53.904Z,14.90
2017-10-02T00:13:53.900Z,10.30
2017-10-02T00:14:53.904Z,11.60
2017-10-02T00:15:53.900Z,10.20
2017-10-02T00:16:53.897Z,12.50
2017-10-02T00:17:53.901Z,7.90
2017-10-02T00:18:53.891Z,10.90
2017-10-02T00:19:53.890Z,9.20
2017-10-02T00:20:53.885Z,8.60
2017-10-02T00:21:53.883Z,8.90
2017-10-02T00:22:53.877Z,9.00
2017-10-02T00:23:53.875Z,9.90
2017-10-02T00:24:53.871Z,10.90
2017-10-02T00:25:53.871Z,9.60
2017-10-02T00:26:53.868Z,11.40
2017-10-02T00:27:53.864Z,7.50
2017-10-02T00:28:53.864Z,11.20
2017-10-02T00:29:53.860Z,7.70
2017-10-02T00:30:53.863Z,14.00
2017-10-02T00:31:53.860Z,7.90
2017-10-02T00:32:53.857Z,10.40
2017-10-02T00:33:53.855Z,9.20
2017-10-02T00:34:53.853Z,11.50
2017-10-02T00:35:53.850Z,10.60
2017-10-02T00:36:53.847Z,9.60
2017-10-02T00:37:53.843Z,10.00
2017-10-02T00:38:53.836Z,11.20
2017-10-02T00:39:53.836Z,7.80
2017-10-02T00:40:53.835Z,11.90
2017-10-02T00:41:53.830Z,8.70
2017-10-02T00:42:53.832Z,7.30
2017-10-02T00:43:53.832Z,11.40
2017-10-02T00:44:53.826Z,10.70
2017-10-02T00:45:53.825Z,11.80
2017-10-02T00:46:53.822Z,9.40
2017-10-02T00:47:53.815Z,12.30
2017-10-02T00:48:53.812Z,11.10
2017-10-02T00:49:53.813Z,9.60
2017-10-02T00:50:53.807Z,9.60
2017-10-02T00:51:53.809Z,10.90
2017-10-02T00:52:53.803Z,8.60
2017-10-02T00:53:53.802Z,10.30
2017-10-02T00:54:53.802Z,9.00
2017-10-02T00:55:53.801Z,7.90
2017-10-02T00:56:53.797Z,8.40
2017-10-02T00:57:53.796Z,8.60
2017-10-02T00:58:53.792Z,13.70
2017-10-02T00:59:53.790Z,6.50
2017-10-02T01:00:53.786Z,10.10
2017-10-02T01:01:53.790Z,11.00
2017-10-02T01:02:53.779Z,8.60
2017-10-02T01:03:53.776Z,6.90
2017-10-02T01:04:53.774Z,10.00
2017-10-02T01:05:53.773Z,8.50
2017-10-02T01:06:53.769Z,9.40
2017-10-02T01:07:53.767Z,11.60
2017-10-02T01:08:53.765Z,10.50
2017-10-02T01:09:53.762Z,11.80
2017-10-02T01:10:53.766Z,7.00
2017-10-02T01:11:53.763Z,10.50
2017-10-02T01:12:53.760Z,9.50
2017-10-02T01:13:53.757Z,8.70
2017-10-02T01:14:53.754Z,13.80
2017-10-02T01:15:53.753Z,9.50
2017-10-02T01:16:53.751Z,13.40
2017-10-02T01:17:53.748Z,12.20
2017-10-02T01:18:53.742Z,11.40
2017-10-02T01:19:53.742Z,8.40
2017-10-02T01:20:53.738Z,9.80
2017-10-02T01:21:53.734Z,6.70
2017-10-02T01:22:53.734Z,7.60
2017-10-02T01:23:53.730Z,10.30
2017-10-02T01:24:53.728Z,6.40
2017-10-02T01:25:53.726Z,8.30
2017-10-02T01:26:53.728Z,8.80
2017-10-02T01:27:53.725Z,8.60
2017-10-02T01:28:53.723Z,9.10
2017-10-02T01:29:53.722Z,9.40
2017-10-02T01:30:53.718Z,7.50
2017-10-02T01:31:53.717Z,9.00
2017-10-02T01:32:53.714Z,9.90
2017-10-02T01:33:53.711Z,10.10
2017-10-02T01:34:53.705Z,13.80
2017-10-02T01:35:53.706Z,7.20
2017-10-02T01:36:53.699Z,10.00
2017-10-02T01:37:53.699Z,12.80
2017-10-02T01:38:53.697Z,7.00
2017-10-02T01:39:53.695Z,9.10
2017-10-02T01:40:53.692Z,10.90
2017-10-02T01:41:53.690Z,10.00
2017-10-02T01:42:53.692Z,10.20
2017-10-02T01:43:53.689Z,9.40
2017-10-02T01:44:53.686Z,9.60
2017-10-02T01:45:53.684Z,10.40
2017-10-02T01:46:53.679Z,8.80
2017-10-02T01:47:53.677Z,11.00
2017-10-02T01:48:53.675Z,12.10
2017-10-02T01:49:53.672Z,6.60
2017-10-02T01:50:53.675Z,7.90
2017-10-02T01:51:53.672Z,12.20
2017-10-02T01:52:53.669Z,7.90
2017-10-02T01:53:53.667Z,7.20
2017-10-02T01:54:53.664Z,7.00
2017-10-02T01:55:53.663Z,11.30
2017-10-02T01:56:53.659Z,12.60
2017-10-02T01:57:53.657Z,9.30
2017-10-02T01:58:53.651Z,9.80
2017-10-02T01:59:53.649Z,11.10
2017-10-02T02:00:53.646Z,8.70
2017-10-02T02:01:53.642Z,7.50
2017-10-02T02:02:53.641Z,8.10
2017-10-02T02:03:53.639Z,10.80
2017-10-02T02:04:53.636Z,10.00
2017-10-02T02:05:53.633Z,6.80
2017-10-02T02:06:53.635Z,9.70
2017-10-02T02:07:53.654Z,9.30
2017-10-02T02:08:53.629Z,9.90
2017-10-02T02:09:53.627Z,7.90
2017-10-02T02:10:53.624Z,8.90
2017-10-02T02:11:53.622Z,8.80
2017-10-02T02:12:53.619Z,12.80
2017-10-02T02:13:53.618Z,9.10
2017-10-02T02:14:53.610Z,12.10
2017-10-02T02:15:53.607Z,10.80
2017-10-02T02:16:53.605Z,15.30
2017-10-02T02:17:53.603Z,8.20
2017-10-02T02:18:53.600Z,7.60
2017-10-02T02:19:53.596Z,8.70
2017-10-02T02:20:53.592Z,8.70
2017-10-02T02:21:53.590Z,10.30
2017-10-02T02:22:53.592Z,8.50
2017-10-02T02:23:53.590Z,10.40
2017-10-02T02:24:53.586Z,12.90
2017-10-02T02:25:53.584Z,9.40
2017-10-02T02:26:53.581Z,10.50
2017-10-02T02:27:53.578Z,13.20
2017-10-02T02:28:53.575Z,10.40
2017-10-02T02:29:53.571Z,10.00
2017-10-02T02:30:53.567Z,10.00
2017-10-02T02:31:53.562Z,9.30
2017-10-02T02:32:53.559Z,8.50
2017-10-02T02:33:53.557Z,7.90
2017-10-02T02:34:53.554Z,8.90
2017-10-02T02:35:53.553Z,9.50
2017-10-02T02:36:53.547Z,9.70
2017-10-02T02:37:53.549Z,11.10
2017-10-02T02:38:53.545Z,12.20
2017-10-02T02:39:53.544Z,9.30
2017-10-02T02:40:53.540Z,10.10
2017-10-02T02:41:53.542Z,10.90
2017-10-02T02:42:53.534Z,9.20
2017-10-02T02:43:53.532Z,7.90
2017-10-02T02:44:53.527Z,10.40
2017-10-02T02:45:53.525Z,12.30
2017-10-02T02:46:53.519Z,10.50
2017-10-02T02:47:53.517Z,5.80
2017-10-02T02:48:53.513Z,7.00
2017-10-02T02:49:53.510Z,11.20
2017-10-02T02:50:53.512Z,11.60
2017-10-02T02:51:53.510Z,10.60
2017-10-02T02:52:53.505Z,13.70
2017-10-02T02:53:53.504Z,8.40
2017-10-02T02:54:53.497Z,9.50
2017-10-02T02:55:53.494Z,11.40
2017-10-02T02:56:53.490Z,13.50
2017-10-02T02:57:53.488Z,10.70
2017-10-02T02:58:53.484Z,9.60
2017-10-02T02:59:53.490Z,9.20
2017-10-02T03:00:53.480Z,11.50
2017-10-02T03:01:53.476Z,8.10
2017-10-02T03:02:53.478Z,8.50
2017-10-02T03:03:53.475Z,7.40
2017-10-02T03:04:53.474Z,11.80
2017-10-02T03:05:53.468Z,10.60
2017-10-02T03:06:53.467Z,9.30
2017-10-02T03:07:53.464Z,10.30
2017-10-02T03:08:53.462Z,11.10
2017-10-02T03:09:53.457Z,9.70
2017-10-02T03:10:53.451Z,12.10
2017-10-02T03:11:53.449Z,10.60
2017-10-02T03:12:53.446Z,10.90
2017-10-02T03:13:53.443Z,14.10
2017-10-02T03:14:53.440Z,9.00
2017-10-02T03:15:53.438Z,11.10
2017-10-02T03:16:53.435Z,10.50
2017-10-02T03:17:53.431Z,6.80
2017-10-02T03:18:53.434Z,10.00
2017-10-02T03:19:53.432Z,9.20
2017-10-02T03:20:53.433Z,13.30
2017-10-02T03:21:53.424Z,11.90
2017-10-02T03:22:53.421Z,11.50
2017-10-02T03:23:53.419Z,11.60
2017-10-02T03:24:53.416Z,11.50
2017-10-02T03:25:53.413Z,11.80
2017-10-02T03:26:53.407Z,12.80
2017-10-02T03:27:53.401Z,10.70
2017-10-02T03:28:53.399Z,12.20
2017-10-02T03:29:53.395Z,12.10
2017-10-02T03:30:53.394Z,10.60
2017-10-02T03:31:53.390Z,12.40
2017-10-02T03:32:53.385Z,10.80
2017-10-02T03:33:53.383Z,13.70
2017-10-02T03:34:53.384Z,15.10
2017-10-02T03:35:53.381Z,12.90
2017-10-02T03:36:53.377Z,12.60
2017-10-02T03:37:53.376Z,12.00
2017-10-02T03:38:53.371Z,14.60
2017-10-02T03:39:53.367Z,12.30
2017-10-02T03:40:53.364Z,12.60
2017-10-02T03:41:53.361Z,11.90
2017-10-02T03:42:53.353Z,13.20
2017-10-02T03:43:53.350Z,11.70
2017-10-02T03:44:53.346Z,13.20
2017-10-02T03:45:53.342Z,12.40
2017-10-02T03:46:53.339Z,11.90
2017-10-02T03:47:53.337Z,20.10
2017-10-02T03:48:53.333Z,9.70
2017-10-02T03:49:53.329Z,14.00
2017-10-02T03:50:53.335Z,10.60
2017-10-02T03:51:53.327Z,9.60
2017-10-02T03:52:53.323Z,10.10
2017-10-02T03:53:53.320Z,16.50
2017-10-02T03:54:53.315Z,15.90
2017-10-02T03:55:53.314Z,12.50
2017-10-02T03:56:53.310Z,12.80
2017-10-02T03:57:53.305Z,9.70
2017-10-02T03:58:53.300Z,12.00
2017-10-02T03:59:53.295Z,11.50
2017-10-02T04:00:53.292Z,10.10
2017-10-02T04:01:53.290Z,13.30
2017-10-02T04:02:53.285Z,9.90
2017-10-02T04:03:53.283Z,12.80
2017-10-02T04:04:53.279Z,13.30
2017-10-02T04:05:53.277Z,13.00
2017-10-02T04:06:53.277Z,11.10
2017-10-02T04:07:53.273Z,14.90
2017-10-02T04:08:53.271Z,10.90
2017-10-02T04:09:53.267Z,10.60
2017-10-02T04:10:53.262Z,11.80
2017-10-02T04:11:53.260Z,13.10
2017-10-02T04:12:53.255Z,16.20
2017-10-02T04:13:53.253Z,11.70
2017-10-02T04:14:53.245Z,15.50
2017-10-02T04:15:53.244Z,12.90
2017-10-02T04:16:53.238Z,16.90
2017-10-02T04:17:53.236Z,13.20
2017-10-02T04:18:53.232Z,12.90
2017-10-02T04:19:53.231Z,14.90
2017-10-02T04:20:53.227Z,19.20
2017-10-02T04:21:53.223Z,12.20
2017-10-02T04:22:53.224Z,15.20
2017-10-02T04:23:53.221Z,13.00
2017-10-02T04:24:53.217Z,13.00
2017-10-02T04:25:53.215Z,15.70
2017-10-02T04:26:53.212Z,14.20
2017-10-02T04:27:53.207Z,15.40
2017-10-02T04:28:53.204Z,13.10
2017-10-02T04:29:53.200Z,15.20
2017-10-02T04:30:53.194Z,18.10
2017-10-02T04:31:53.191Z,14.40
2017-10-02T04:32:53.187Z,13.70
2017-10-02T04:33:53.184Z,16.80
2017-10-02T04:34:53.182Z,13.20
2017-10-02T04:35:53.178Z,11.90
2017-10-02T04:36:53.173Z,11.40
2017-10-02T04:37:53.170Z,11.30
2017-10-02T04:38:53.172Z,13.00
2017-10-02T04:39:53.169Z,12.90
2017-10-02T04:40:53.164Z,11.90
2017-10-02T04:41:53.164Z,13.40
2017-10-02T04:42:53.159Z,13.90
2017-10-02T04:43:53.157Z,12.00
2017-10-02T04:44:53.153Z,12.00
2017-10-02T04:45:53.151Z,12.90
2017-10-02T04:46:53.142Z,12.70
2017-10-02T04:47:53.139Z,12.70
2017-10-02T04:48:53.136Z,11.20
2017-10-02T04:49:53.133Z,12.30
2017-10-02T04:50:53.129Z,10.40
2017-10-02T04:51:53.129Z,9.30
2017-10-02T04:52:53.123Z,12.50
2017-10-02T04:53:53.121Z,11.60
2017-10-02T04:54:53.121Z,13.70
2017-10-02T04:55:53.119Z,14.00
2017-10-02T04:56:53.116Z,16.00
2017-10-02T04:57:53.117Z,13.10
2017-10-02T04:58:53.105Z,11.60
2017-10-02T04:59:53.103Z,16.00
2017-10-02T05:00:53.098Z,13.70
2017-10-02T05:01:53.096Z,12.80
2017-10-02T05:02:53.098Z,16.10
2017-10-02T05:03:53.095Z,11.90
2017-10-02T05:04:53.091Z,12.30
2017-10-02T05:05:53.088Z,11.90
2017-10-02T05:06:53.086Z,11.20
2017-10-02T05:07:53.082Z,12.20
2017-10-02T05:08:53.080Z,16.90
2017-10-02T05:09:53.076Z,17.00
2017-10-02T05:10:53.069Z,10.50
2017-10-02T05:11:53.066Z,12.20
2017-10-02T05:12:53.067Z,10.70
2017-10-02T05:13:53.061Z,10.30
2017-10-02T05:14:53.058Z,11.30
2017-10-02T05:15:53.056Z,11.10
2017-10-02T05:16:53.050Z,12.90
2017-10-02T05:17:53.048Z,18.40
2017-10-02T05:18:53.049Z,11.80
2017-10-02T05:19:53.046Z,12.50
2017-10-02T05:20:53.043Z,12.70
2017-10-02T05:21:53.041Z,9.80
2017-10-02T05:22:53.040Z,12.60
2017-10-02T05:23:53.036Z,8.20
2017-10-02T05:24:53.032Z,10.30
2017-10-02T05:25:53.030Z,11.20
2017-10-02T05:26:53.025Z,14.30
2017-10-02T05:27:53.021Z,12.00
2017-10-02T05:28:53.017Z,9.50
2017-10-02T05:29:53.015Z,12.40
2017-10-02T05:30:53.012Z,12.50
2017-10-02T05:31:53.010Z,8.70
2017-10-02T05:32:53.012Z,13.60
2017-10-02T05:33:53.004Z,11.90
2017-10-02T05:34:53.007Z,11.60
2017-10-02T05:35:53.002Z,10.20
2017-10-02T05:36:52.998Z,10.20
2017-10-02T05:37:52.997Z,9.30
2017-10-02T05:38:52.994Z,9.20
2017-10-02T05:39:52.991Z,12.90
2017-10-02T05:40:52.990Z,15.50
2017-10-02T05:41:52.986Z,11.70
2017-10-02T05:42:52.977Z,14.10
2017-10-02T05:43:52.977Z,9.70
2017-10-02T05:44:52.975Z,11.80
2017-10-02T05:45:52.971Z,14.20
2017-10-02T05:46:52.968Z,13.30
2017-10-02T05:47:52.973Z,11.40
2017-10-02T05:48:52.962Z,11.60
2017-10-02T05:49:52.961Z,10.00
2017-10-02T05:50:52.962Z,10.10
2017-10-02T05:51:52.960Z,12.60
2017-10-02T05:52:52.956Z,10.60
2017-10-02T05:53:52.957Z,11.00
2017-10-02T05:54:52.950Z,10.70
2017-10-02T05:55:52.949Z,9.80
2017-10-02T05:56:52.953Z,8.50
2017-10-02T05:57:52.943Z,10.10
2017-10-02T05:58:52.942Z,8.90
2017-10-02T05:59:52.934Z,12.60
2017-10-02T06:00:52.933Z,8.50
2017-10-02T06:01:52.929Z,9.10
2017-10-02T06:02:52.933Z,8.60
2017-10-02T06:03:52.929Z,8.20
2017-10-02T06:04:52.925Z,11.90
2017-10-02T06:05:52.922Z,8.90
2017-10-02T06:06:52.917Z,12.10
2017-10-02T06:07:52.915Z,11.60
2017-10-02T06:08:52.910Z,9.80
2017-10-02T06:09:52.911Z,11.50
2017-10-02T06:10:52.907Z,9.50
2017-10-02T06:11:52.903Z,10.90
2017-10-02T06:12:52.906Z,8.50
2017-10-02T06:13:52.898Z,12.10
2017-10-02T06:14:52.900Z,8.60
2017-10-02T06:15:52.899Z,10.30
2017-10-02T06:16:52.895Z,8.90
2017-10-02T06:17:52.897Z,10.70
2017-10-02T06:18:52.890Z,9.40
2017-10-02T06:19:52.891Z,10.20
2017-10-02T06:20:52.886Z,12.30
2017-10-02T06:21:52.883Z,13.80
2017-10-02T06:22:52.877Z,10.80
2017-10-02T06:23:52.875Z,10.10
2017-10-02T06:24:52.874Z,12.00
2017-10-02T06:25:52.871Z,10.60
2017-10-02T06:26:52.867Z,10.50
2017-10-02T06:27:52.865Z,10.70
2017-10-02T06:28:52.863Z,11.60
2017-10-02T06:29:52.860Z,7.70
2017-10-02T06:30:52.862Z,15.40
2017-10-02T06:31:52.860Z,12.00
2017-10-02T06:32:52.858Z,9.40
2017-10-02T06:33:52.856Z,9.70
2017-10-02T06:34:52.853Z,12.30
2017-10-02T06:35:52.849Z,11.90
2017-10-02T06:36:52.847Z,15.90
2017-10-02T06:37:52.847Z,11.20
2017-10-02T06:38:52.839Z,12.90
2017-10-02T06:39:52.835Z,12.00
2017-10-02T06:40:52.834Z,9.80
2017-10-02T06:41:52.832Z,9.60
2017-10-02T06:42:52.829Z,12.80
2017-10-02T06:43:52.827Z,10.10
2017-10-02T06:44:52.824Z,10.40
2017-10-02T06:45:52.822Z,11.00
2017-10-02T06:46:52.823Z,11.20
2017-10-02T06:47:52.821Z,7.80
2017-10-02T06:48:52.819Z,9.50
2017-10-02T06:49:52.815Z,8.60
2017-10-02T06:50:52.820Z,10.10
2017-10-02T06:51:52.812Z,8.60
2017-10-02T06:52:52.809Z,9.50
2017-10-02T06:53:52.807Z,9.50
2017-10-02T06:54:52.801Z,9.10
2017-10-02T06:55:52.800Z,9.20
2017-10-02T06:56:52.794Z,6.90
2017-10-02T06:57:52.795Z,14.80
2017-10-02T06:58:52.795Z,7.10
2017-10-02T06:59:52.790Z,6.90
2017-10-02T07:00:52.787Z,6.90
2017-10-02T07:01:52.785Z,7.60
2017-10-02T07:02:52.786Z,7.60
2017-10-02T07:03:52.786Z,11.70
2017-10-02T07:04:52.782Z,10.20
2017-10-02T07:05:52.779Z,7.70
2017-10-02T07:06:52.773Z,11.70
2017-10-02T07:07:52.775Z,6.50
2017-10-02T07:08:52.773Z,9.10
2017-10-02T07:09:52.765Z,7.30
2017-10-02T07:10:52.768Z,8.70
2017-10-02T07:11:52.767Z,6.90
2017-10-02T07:12:52.762Z,5.60
2017-10-02T07:13:52.761Z,6.90
2017-10-02T07:14:52.760Z,6.80
2017-10-02T07:15:52.757Z,5.40
2017-10-02T07:16:52.755Z,9.10
2017-10-02T07:17:52.753Z,8.00
2017-10-02T07:18:52.750Z,7.10
2017-10-02T07:19:52.743Z,6.80
2017-10-02T07:20:52.742Z,8.20
2017-10-02T07:21:52.741Z,7.60
2017-10-02T07:22:52.739Z,6.10
2017-10-02T07:23:52.737Z,7.20
2017-10-02T07:24:52.733Z,7.10
2017-10-02T07:25:52.734Z,6.90
2017-10-02T07:26:52.735Z,6.90
2017-10-02T07:27:52.732Z,6.50
2017-10-02T07:28:52.730Z,6.10
2017-10-02T07:29:52.729Z,5.20
2017-10-02T07:30:52.726Z,5.70
2017-10-02T07:31:52.725Z,4.70
2017-10-02T07:32:52.726Z,5.20
2017-10-02T07:33:52.722Z,9.10
2017-10-02T07:34:52.715Z,6.30
2017-10-02T07:35:52.730Z,5.90
2017-10-02T07:36:52.712Z,4.80
2017-10-02T07:37:52.709Z,6.20
2017-10-02T07:38:52.708Z,7.30
2017-10-02T07:39:52.707Z,4.50
2017-10-02T07:40:52.704Z,7.50
2017-10-02T07:41:52.702Z,5.10
2017-10-02T07:42:52.706Z,3.40
2017-10-02T07:43:52.704Z,5.40
2017-10-02T07:44:52.703Z,6.40
2017-10-02T07:45:52.701Z,7.50
2017-10-02T07:46:52.702Z,4.60
2017-10-02T07:47:52.699Z,4.40
2017-10-02T07:48:52.696Z,3.60
2017-10-02T07:49:52.696Z,3.80
2017-10-02T07:50:52.690Z,3.30
2017-10-02T07:51:52.688Z,4.30
2017-10-02T07:52:52.686Z,3.70
2017-10-02T07:53:52.684Z,3.40
2017-10-02T07:54:52.684Z,3.20
2017-10-02T07:55:52.681Z,4.70
2017-10-02T07:56:52.681Z,4.70
2017-10-02T07:57:52.679Z,3.20
2017-10-02T07:58:52.681Z,5.10
2017-10-02T07:59:52.681Z,7.30
2017-10-02T08:00:52.697Z,4.90
2017-10-02T08:01:52.678Z,4.20
2017-10-02T08:02:52.679Z,6.20
2017-10-02T08:03:52.676Z,5.00
2017-10-02T08:04:52.673Z,4.90
2017-10-02T08:05:52.672Z,3.90
2017-10-02T08:06:52.668Z,4.50
2017-10-02T08:07:52.666Z,5.70
2017-10-02T08:08:52.664Z,6.10
2017-10-02T08:09:52.664Z,4.40
2017-10-02T08:10:52.665Z,5.20
2017-10-02T08:11:52.665Z,6.80
2017-10-02T08:12:52.662Z,6.70
2017-10-02T08:13:52.662Z,6.00
2017-10-02T08:14:52.657Z,5.70
2017-10-02T08:15:52.655Z,5.60
2017-10-02T08:16:52.653Z,5.70
2017-10-02T08:17:52.653Z,8.70
2017-10-02T08:18:52.657Z,6.70
2017-10-02T08:19:52.648Z,8.40
2017-10-02T08:20:52.648Z,7.50
2017-10-02T08:21:52.647Z,8.50
2017-10-02T08:22:52.651Z,7.40
2017-10-02T08:23:52.647Z,6.40
2017-10-02T08:24:52.646Z,8.80
2017-10-02T08:25:52.646Z,6.70
2017-10-02T08:26:52.644Z,6.80
2017-10-02T08:27:52.643Z,9.30
2017-10-02T08:28:52.640Z,6.50
2017-10-02T08:29:52.638Z,8.30
2017-10-02T08:30:52.634Z,8.00
2017-10-02T08:31:52.634Z,10.70
2017-10-02T08:32:52.633Z,6.90
2017-10-02T08:33:52.629Z,10.90
2017-10-02T08:34:52.630Z,8.10
2017-10-02T08:35:52.629Z,6.70
2017-10-02T08:36:52.625Z,10.00
2017-10-02T08:37:52.627Z,10.50
2017-10-02T08:38:52.630Z,7.90
2017-10-02T08:39:52.627Z,8.00
2017-10-02T08:40:52.627Z,10.30
2017-10-02T08:41:52.625Z,8.00
2017-10-02T08:42:52.632Z,7.80
2017-10-02T08:43:52.628Z,7.30
2017-10-02T08:44:52.625Z,8.40
2017-10-02T08:45:52.620Z,8.30
2017-10-02T08:46:52.629Z,8.90
2017-10-02T08:47:52.616Z,7.30
2017-10-02T08:48:52.617Z,7.90
2017-10-02T08:49:52.610Z,7.90
2017-10-02T08:50:52.611Z,7.10
2017-10-02T08:51:52.612Z,6.70
2017-10-02T08:52:52.607Z,7.60
2017-10-02T08:53:52.609Z,7.20
2017-10-02T08:54:52.610Z,7.30
2017-10-02T08:55:52.610Z,8.30
2017-10-02T08:56:52.609Z,10.80
2017-10-02T08:57:52.625Z,8.00
2017-10-02T08:58:52.607Z,8.30
2017-10-02T08:59:52.605Z,12.00
2017-10-02T09:00:52.605Z,11.50
2017-10-02T09:01:52.604Z,13.30
2017-10-02T09:02:52.601Z,9.30
2017-10-02T09:03:52.599Z,7.00
2017-10-02T09:04:52.598Z,10.80
2017-10-02T09:05:52.598Z,7.90
2017-10-02T09:06:52.597Z,11.50
2017-10-02T09:07:52.595Z,6.20
2017-10-02T09:08:52.593Z,8.80
2017-10-02T09:09:52.593Z,6.70
2017-10-02T09:10:52.602Z,7.00
2017-10-02T09:11:52.597Z,6.90
2017-10-02T09:12:52.594Z,10.80
2017-10-02T09:13:52.595Z,7.50
2017-10-02T09:14:52.590Z,6.80
2017-10-02T09:15:52.590Z,7.30
2017-10-02T09:16:52.587Z,6.80
2017-10-02T09:17:52.587Z,6.30
2017-10-02T09:18:52.593Z,5.50
2017-10-02T09:19:52.591Z,5.30
2017-10-02T09:20:52.589Z,6.20
2017-10-02T09:21:52.588Z,7.40
2017-10-02T09:22:52.589Z,7.10
2017-10-02T09:23:52.588Z,5.30
2017-10-02T09:24:52.588Z,6.90
2017-10-02T09:25:52.588Z,6.10
2017-10-02T09:26:52.583Z,5.30
2017-10-02T09:27:52.583Z,8.10
2017-10-02T09:28:52.581Z,8.00
2017-10-02T09:29:52.581Z,7.60
2017-10-02T09:30:52.580Z,5.90
2017-10-02T09:31:52.582Z,8.00
2017-10-02T09:32:52.586Z,7.10
2017-10-02T09:33:52.579Z,7.30
2017-10-02T09:34:52.584Z,7.50
2017-10-02T09:35:52.583Z,5.90
2017-10-02T09:36:52.580Z,6.30
2017-10-02T09:37:52.582Z,5.80
2017-10-02T09:38:52.582Z,9.50
2017-10-02T09:39:52.581Z,8.20
2017-10-02T09:40:52.579Z,5.20
2017-10-02T09:41:52.580Z,6.50
2017-10-02T09:42:52.574Z,5.70
2017-10-02T09:43:52.580Z,6.30
2017-10-02T09:44:52.576Z,6.10
2017-10-02T09:45:52.575Z,4.70
2017-10-02T09:46:52.577Z,4.90
2017-10-02T09:47:52.578Z,5.50
2017-10-02T09:48:52.578Z,10.40
2017-10-02T09:49:52.578Z,8.00
2017-10-02T09:50:52.584Z,8.40
2017-10-02T09:51:52.585Z,8.30
2017-10-02T09:52:52.590Z,7.00
2017-10-02T09:53:52.588Z,4.50
2017-10-02T09:54:52.590Z,10.10
2017-10-02T09:55:52.593Z,7.60
2017-10-02T09:56:52.593Z,10.70
2017-10-02T09:57:52.597Z,9.40
2017-10-02T09:58:52.595Z,9.00
2017-10-02T09:59:52.598Z,8.20
2017-10-02T10:00:52.601Z,9.50
2017-10-02T10:01:52.603Z,11.70
2017-10-02T10:02:52.607Z,9.10
2017-10-02T10:03:52.611Z,8.70
2017-10-02T10:04:52.612Z,7.50
2017-10-02T10:05:52.615Z,11.10
2017-10-02T10:06:52.622Z,10.90
2017-10-02T10:07:52.625Z,11.70
2017-10-02T10:08:52.627Z,10.80
2017-10-02T10:09:52.630Z,8.50
2017-10-02T10:10:52.633Z,11.10
2017-10-02T10:11:52.635Z,13.10
2017-10-02T10:12:52.638Z,14.10
2017-10-02T10:13:52.638Z,15.20
2017-10-02T10:14:52.639Z,13.50
2017-10-02T10:15:52.642Z,12.50
2017-10-02T10:16:52.642Z,13.50
2017-10-02T10:17:52.645Z,11.60
2017-10-02T10:18:52.654Z,15.90
2017-10-02T10:19:52.656Z,13.20
2017-10-02T10:20:52.657Z,12.80
2017-10-02T10:21:52.661Z,17.40
2017-10-02T10:22:52.661Z,17.20
2017-10-02T10:23:52.663Z,16.20
2017-10-02T10:24:52.665Z,16.50
2017-10-02T10:25:52.666Z,17.90
2017-10-02T10:26:52.670Z,19.00
2017-10-02T10:27:52.672Z,21.90
2017-10-02T10:28:52.674Z,21.70
2017-10-02T10:29:52.679Z,17.30
2017-10-02T10:30:52.684Z,17.80
2017-10-02T10:31:52.693Z,17.70
2017-10-02T10:32:52.686Z,18.40
2017-10-02T10:33:52.689Z,23.90
2017-10-02T10:34:52.693Z,19.70
2017-10-02T10:35:52.695Z,23.50
2017-10-02T10:36:52.697Z,21.60
2017-10-02T10:37:52.699Z,17.60
2017-10-02T10:38:52.695Z,19.20
2017-10-02T10:39:52.700Z,22.50
2017-10-02T10:40:52.699Z,23.00
2017-10-02T10:41:52.702Z,24.40
2017-10-02T10:42:52.704Z,17.70
2017-10-02T10:43:52.707Z,18.80
2017-10-02T10:44:52.709Z,20.40
2017-10-02T10:45:52.710Z,20.60
2017-10-02T10:46:52.718Z,23.00
2017-10-02T10:47:52.717Z,19.90
2017-10-02T10:48:52.718Z,20.10
2017-10-02T10:49:52.722Z,24.40
2017-10-02T10:50:52.723Z,21.70
2017-10-02T10:51:52.727Z,21.50
2017-10-02T10:52:52.728Z,22.30
2017-10-02T10:53:52.735Z,22.80
2017-10-02T10:54:52.729Z,25.00
2017-10-02T10:55:52.735Z,26.40
2017-10-02T10:56:52.732Z,24.60
2017-10-02T10:57:52.735Z,21.00
2017-10-02T10:58:52.737Z,24.70
2017-10-02T10:59:52.739Z,25.60
2017-10-02T11:00:52.742Z,32.10
2017-10-02T11:01:52.744Z,25.20
2017-10-02T11:02:52.758Z,26.80
2017-10-02T11:03:52.757Z,27.60
2017-10-02T11:04:52.757Z,24.20
2017-10-02T11:05:52.761Z,27.50
2017-10-02T11:06:52.768Z,24.30
2017-10-02T11:07:52.767Z,24.90
2017-10-02T11:08:52.769Z,31.40
2017-10-02T11:09:52.777Z,24.00
2017-10-02T11:10:52.770Z,26.20
2017-10-02T11:11:52.781Z,23.40
2017-10-02T11:12:52.776Z,24.90
2017-10-02T11:13:52.777Z,27.30
2017-10-02T11:14:52.781Z,23.80
2017-10-02T11:15:52.785Z,25.30
2017-10-02T11:16:52.785Z,27.40
2017-10-02T11:17:52.789Z,27.70
2017-10-02T11:18:52.797Z,29.10
2017-10-02T11:19:52.798Z,27.80
2017-10-02T11:20:52.800Z,30.60
2017-10-02T11:21:52.804Z,28.00
2017-10-02T11:22:52.804Z,28.90
2017-10-02T11:23:52.822Z,27.10
2017-10-02T11:24:52.805Z,27.00
2017-10-02T11:25:52.810Z,29.60
2017-10-02T11:26:52.816Z,29.40
2017-10-02T11:27:52.818Z,25.70
2017-10-02T11:28:52.820Z,21.80
2017-10-02T11:29:52.823Z,29.40
2017-10-02T11:30:52.830Z,29.40
2017-10-02T11:31:52.829Z,25.10
2017-10-02T11:32:52.833Z,27.90
2017-10-02T11:33:52.834Z,33.50
2017-10-02T11:34:52.835Z,27.70
2017-10-02T11:35:52.837Z,28.80
2017-10-02T11:36:52.840Z,31.30
2017-10-02T11:37:52.841Z,30.50
2017-10-02T11:38:52.845Z,27.40
2017-10-02T11:39:52.848Z,28.90
2017-10-02T11:40:52.848Z,30.50
2017-10-02T11:41:52.852Z,32.40
2017-10-02T11:42:52.859Z,27.30
2017-10-02T11:43:52.862Z,29.30
2017-10-02T11:44:52.863Z,33.80
2017-10-02T11:45:52.867Z,25.70
2017-10-02T11:46:52.869Z,33.20
2017-10-02T11:47:52.872Z,30.80
2017-10-02T11:48:52.874Z,28.80
2017-10-02T11:49:52.874Z,32.70
2017-10-02T11:50:52.874Z,29.20
2017-10-02T11:51:52.876Z,28.90
2017-10-02T11:52:52.879Z,35.20
2017-10-02T11:53:52.880Z,26.70
2017-10-02T11:54:52.884Z,27.90
2017-10-02T11:55:52.887Z,30.00
2017-10-02T11:56:52.889Z,30.80
2017-10-02T11:57:52.890Z,26.80
2017-10-02T11:58:52.899Z,29.40
2017-10-02T11:59:52.902Z,32.20
2017-10-02T12:00:52.903Z,27.20
2017-10-02T12:01:52.905Z,34.00
2017-10-02T12:02:52.909Z,39.80
2017-10-02T12:03:52.912Z,28.60
2017-10-02T12:04:52.912Z,31.20
2017-10-02T12:05:52.919Z,27.20
2017-10-02T12:06:52.916Z,31.00
2017-10-02T12:07:52.917Z,34.80
2017-10-02T12:08:52.918Z,26.90
2017-10-02T12:09:52.922Z,29.20
2017-10-02T12:10:52.924Z,31.00
2017-10-02T12:11:52.927Z,26.80
2017-10-02T12:12:52.930Z,32.70
2017-10-02T12:13:52.931Z,26.90
2017-10-02T12:14:52.937Z,34.10
2017-10-02T12:15:52.940Z,32.10
2017-10-02T12:16:52.942Z,32.00
2017-10-02T12:17:52.945Z,32.30
2017-10-02T12:18:52.946Z,36.40
2017-10-02T12:19:52.962Z,29.80
2017-10-02T12:20:52.953Z,30.50
2017-10-02T12:21:52.967Z,36.40
2017-10-02T12:22:52.952Z,31.30
2017-10-02T12:23:52.957Z,27.70
2017-10-02T12:24:52.955Z,34.30
2017-10-02T12:25:52.960Z,30.00
2017-10-02T12:26:52.966Z,32.00
2017-10-02T12:27:52.965Z,34.60
2017-10-02T12:28:52.966Z,29.80
2017-10-02T12:29:52.967Z,32.30
2017-10-02T12:30:52.975Z,31.60
2017-10-02T12:31:52.979Z,29.20
2017-10-02T12:32:52.982Z,26.60
2017-10-02T12:33:52.980Z,28.60
2017-10-02T12:34:52.985Z,27.00
2017-10-02T12:35:52.988Z,33.90
2017-10-02T12:36:52.988Z,34.50
2017-10-02T12:37:52.992Z,27.20
2017-10-02T12:38:52.990Z,32.30
2017-10-02T12:39:52.991Z,28.90
2017-10-02T12:40:52.994Z,35.50
2017-10-02T12:41:52.999Z,34.30
2017-10-02T12:42:53.003Z,30.80
2017-10-02T12:43:53.001Z,28.80
2017-10-02T12:44:53.003Z,30.60
2017-10-02T12:45:53.004Z,31.00
2017-10-02T12:46:53.012Z,33.50
2017-10-02T12:47:53.015Z,33.80
2017-10-02T12:48:53.014Z,33.10
2017-10-02T12:49:53.018Z,33.00
2017-10-02T12:50:53.021Z,29.20
2017-10-02T12:51:53.022Z,30.40
2017-10-02T12:52:53.025Z,36.30
2017-10-02T12:53:53.026Z,36.40
2017-10-02T12:54:53.026Z,35.40
2017-10-02T12:55:53.028Z,32.60
2017-10-02T12:56:53.029Z,33.40
2017-10-02T12:57:53.031Z,29.80
2017-10-02T12:58:53.032Z,27.50
2017-10-02T12:59:53.035Z,32.40
2017-10-02T13:00:53.036Z,34.30
2017-10-02T13:01:53.038Z,31.00
2017-10-02T13:02:53.045Z,31.50